Terminal Aerodrome Forecast
Issued by NWS

Home | Current Version | Previous Version | Text Only | Print | Product List | Glossary On
Versions: 1 2 3 4 5 6 7 8 9 10 11 12 13 14 15 16 17 18 19 20 21 22 23 24 25 26 27 28 29 30 31 32 33 34 35 36
000
FTUS41 KRNK 300547 CCA
TAFLWB
TAF COR
KLWB 300547Z 3006/3106 24005KT P6SM OVC040
     FM300800 26006KT P6SM OVC030
      TEMPO 3009/3013 5SM -SHRA BR SCT018 OVC027
     FM301300 27010G20KT 5SM -SHRA BR SCT012 OVC018
     FM301600 28011G21KT P6SM OVC018
     FM301800 28011G21KT P6SM SCT023 SCT250
     FM302300 29005KT P6SM SCT250=

USA.gov is the U.S. government's official web portal to all federal, state and local government web resources and services.